CYUL/YUL METAR and TAF weather

Enter ICAO airport designator
Station Type Date Time Source
CYUL METAR 2022/12/04 12:00 UTC NOAA

CYUL 041200Z 29007KT 15SM BKN040 BKN250 M04/M11 A3018 RMK SC6CI1 CI TR SLP223


Station Type Date Time Source
CYUL Decoded METAR 2022/12/04 12:00 UTC NOAA

Montreal / Pierre Elliot Trudeau International Airport, Que, Canada (CYUL) 45-28N 073-45W 36M
Dec 04, 2022 - 07:00 AM EST / 2022.12.04 1200 UTC
Wind: from the WNW (290 degrees) at 8 MPH (7 KT):0
Visibility: 15 mile(s):0
Sky conditions: mostly cloudy
Temperature: 24 F (-4 C)
Windchill: 15 F (-9 C):1
Dew Point: 12 F (-11 C)
Relative Humidity: 58%
Pressure (altimeter): 30.18 in. Hg (1022 hPa)
ob: CYUL 041200Z 29007KT 15SM BKN040 BKN250 M04/M11 A3018 RMK SC6CI1 CI TR SLP223
cycle: 12

Station Type Date Time Source
CYUL TAF 2022/12/04 12:42 UTC NOAA

TAF CYUL 041140Z 0412/0512 31010G20KT P6SM FEW040
BECMG 0416/0418 20008KT
FM042000 16006KT P6SM -SHSN SCT020 BKN040
FM042300 23010G20KT 3SM -SHSN BKN020 PROB30 0500/0502 2 1/2SM -SHSN VV008
FM050300 23010G20KT P6SM BKN040
FM050700 21012KT 6SM -SHSN BKN040
BECMG 0510/0512 P6SM NSW
RMK NXT FCST BY 041500Z

Example: see airport list